Date,TemperatureHighF,TemperatureAvgF,TemperatureLowF,DewpointHighF,DewpointAvgF,DewpointLowF,HumidityHigh,HumidityAvg,HumidityLow,PressureMaxIn,PressureMinIn,WindSpeedMaxMPH,WindSpeedAvgMPH,GustSpeedMaxMPH,PrecipitationSumIn
2013-3-1,34.2,28.9,25.3,27.5,25.1,20.4,92,86,72,30.38,30.22,11,1,13,0.05
2013-3-2,34.4,27.6,19.0,23.3,20.1,14.9,90,74,52,30.42,30.35,14,1,14,0.02
2013-3-3,34.4,27.2,15.0,23.8,19.3,12.1,92,73,58,30.35,30.12,14,1,14,0.00
2013-3-4,42.5,36.7,32.2,32.5,29.7,23.9,92,76,61,30.13,29.88,20,5,20,0.09
2013-3-5,34.9,32.4,30.6,30.6,27.9,23.4,92,84,73,30.30,29.98,22,4,25,0.02
2013-3-6,35.4,29.8,21.7,25.4,22.7,17.9,86,75,62,30.51,30.30,17,2,17,0.03
2013-3-7,38.8,29.9,18.9,30.1,23.6,15.9,89,78,59,30.55,30.43,14,1,14,0.02
2013-3-8,46.4,39.1,30.4,35.2,31.6,26.7,92,75,64,30.50,30.25,16,5,18,0.00
2013-3-9,55.2,45.8,38.6,43.5,39.1,34.1,92,78,61,30.25,29.82,23,6,23,1.29
2013-3-10,52.2,48.1,39.1,50.1,45.8,37.1,93,92,86,29.87,29.63,20,2,24,0.75
2013-3-11,39.1,33.9,31.7,37.2,30.2,25.6,93,86,74,30.08,29.79,24,6,24,0.00
2013-3-12,40.6,32.8,26.9,30.5,26.0,22.5,89,76,58,30.35,30.07,24,5,31,0.00
2013-3-13,40.7,32.2,24.7,23.8,20.1,17.5,82,62,44,30.56,30.34,19,3,19,0.00
2013-3-14,58.2,42.3,28.6,40.0,29.7,21.6,77,62,47,30.50,30.17,16,1,16,1.01
2013-3-15,67.3,50.6,34.6,50.1,40.2,30.2,85,69,47,30.18,29.74,12,1,13,0.00
2013-3-16,49.0,40.0,36.5,44.1,35.1,31.2,90,83,74,30.22,29.73,15,2,15,0.00
2013-3-17,38.9,35.1,32.2,32.7,29.6,26.9,89,80,69,30.25,29.94,17,5,17,0.04
2013-3-18,49.2,38.2,31.4,38.0,30.7,20.3,93,76,48,30.14,29.82,25,4,25,0.04
2013-3-19,45.0,35.1,26.4,23.3,18.3,12.8,70,51,31,30.33,30.11,18,3,18,0.00
2013-3-20,34.9,28.1,19.8,24.2,14.2,9.4,74,57,39,30.43,30.27,20,4,20,0.00
2013-3-21,37.5,27.7,17.2,21.1,14.5,10.1,78,58,42,30.27,30.11,9,0,9,0.00
2013-3-22,40.4,33.2,24.2,25.2,21.1,17.0,80,62,47,30.18,30.11,11,1,11,0.00
2013-3-23,49.7,41.0,34.4,33.1,28.4,24.4,87,62,46,30.19,30.01,17,2,17,0.02
2013-3-24,34.6,31.4,30.0,31.2,29.3,27.7,93,92,87,30.07,29.84,16,4,16,0.02
2013-3-25,36.4,31.9,29.5,31.5,28.4,27.1,93,87,71,30.33,30.00,10,2,14,0.07
2013-3-26,41.2,34.9,29.6,28.7,26.6,24.3,85,72,55,30.47,30.32,14,1,15,0.25
2013-3-27,45.7,36.6,26.0,30.4,26.4,22.0,88,67,51,30.51,30.42,11,1,11,0.00
2013-3-28,52.9,42.8,34.4,36.0,30.3,25.6,77,62,49,30.46,30.34,14,3,14,0.00
2013-3-29,61.7,49.0,35.5,44.9,37.9,30.4,84,67,44,30.38,30.29,13,1,13,0.00
2013-3-30,54.6,49.1,44.1,45.9,42.9,38.8,87,79,64,30.29,30.00,17,2,18,0.00
2013-3-31,64.3,53.1,41.5,49.8,42.2,29.3,96,69,39,30.10,29.95,17,3,17,0.00